createdAt,value
2019-03-16T00:00:03.525Z,83.87
2019-03-16T00:05:03.408Z,84.79
2019-03-16T00:10:02.772Z,84.53
2019-03-16T00:15:02.727Z,84.66
2019-03-16T00:20:01.724Z,84.33
2019-03-16T00:25:02.762Z,83.98
2019-03-16T00:30:01.773Z,83.61
2019-03-16T00:35:01.433Z,83.54
2019-03-16T00:40:01.734Z,83.20
2019-03-16T00:45:01.779Z,83.50
2019-03-16T00:50:01.785Z,84.14
2019-03-16T00:55:00.401Z,84.97
2019-03-16T00:59:59.518Z,85.69
2019-03-16T01:05:00.735Z,85.83
2019-03-16T01:10:00.712Z,86.12
2019-03-16T01:15:00.744Z,86.53
2019-03-16T01:19:59.710Z,86.88
2019-03-16T01:24:59.102Z,87.05
2019-03-16T01:29:58.437Z,87.63
2019-03-16T01:34:59.441Z,87.10
2019-03-16T01:39:58.719Z,86.49
2019-03-16T01:44:58.763Z,85.03
2019-03-16T01:49:57.636Z,85.44
2019-03-16T01:54:57.962Z,84.34
2019-03-16T01:59:57.672Z,83.77
2019-03-16T02:04:56.470Z,83.27
2019-03-16T02:09:56.748Z,82.37
2019-03-16T02:14:55.549Z,80.83
2019-03-16T02:24:55.447Z,80.83
2019-03-16T02:29:56.529Z,80.73
2019-03-16T02:34:55.798Z,80.83
2019-03-16T02:39:56.954Z,81.01
2019-03-16T02:44:57.862Z,80.56
2019-03-16T02:49:57.514Z,80.06
2019-03-16T02:54:58.601Z,81.19
2019-03-16T02:59:58.459Z,81.95
2019-03-16T03:04:57.660Z,81.25
2019-03-16T03:09:57.731Z,82.02
2019-03-16T03:14:57.483Z,82.02
2019-03-16T03:19:56.982Z,81.90
2019-03-16T03:24:56.757Z,82.33
2019-03-16T03:29:57.934Z,82.52
2019-03-16T03:34:58.773Z,82.78
2019-03-16T03:39:57.453Z,83.51
2019-03-16T03:44:57.464Z,83.61
2019-03-16T03:49:57.508Z,84.39
2019-03-16T03:54:57.464Z,84.92
2019-03-16T03:59:56.751Z,85.44
2019-03-16T04:04:55.739Z,85.86
2019-03-16T04:09:55.545Z,86.46
2019-03-16T04:14:55.451Z,86.86
2019-03-16T04:19:55.207Z,87.74
2019-03-16T04:24:53.611Z,87.65
2019-03-16T04:29:54.811Z,88.18
2019-03-16T04:34:54.470Z,88.72
2019-03-16T04:39:53.569Z,89.12
2019-03-16T04:44:52.495Z,89.41
2019-03-16T04:49:51.765Z,89.62
2019-03-16T04:54:50.944Z,89.63
2019-03-16T04:59:51.192Z,89.98
2019-03-16T05:04:49.939Z,89.91
2019-03-16T05:09:50.014Z,90.21
2019-03-16T05:14:48.702Z,90.47
2019-03-16T05:19:48.809Z,90.84
2019-03-16T05:24:49.095Z,90.69
2019-03-16T05:29:47.814Z,91.15
2019-03-16T05:34:56.567Z,90.82
2019-03-16T05:39:47.897Z,91.13
2019-03-16T05:44:48.138Z,91.60
2019-03-16T05:49:46.697Z,91.75
2019-03-16T05:54:46.629Z,92.02
2019-03-16T05:59:45.852Z,92.10
2019-03-16T06:04:45.638Z,91.64
2019-03-16T06:09:47.281Z,91.89
2019-03-16T06:14:46.615Z,91.70
2019-03-16T06:19:47.859Z,91.74
2019-03-16T06:24:47.680Z,91.73
2019-03-16T06:29:48.826Z,91.68
2019-03-16T06:34:47.695Z,91.72
2019-03-16T06:39:46.615Z,91.49
2019-03-16T06:44:47.060Z,91.59
2019-03-16T06:49:45.611Z,92.02
2019-03-16T06:54:45.579Z,91.84
2019-03-16T06:59:46.535Z,92.00
2019-03-16T07:04:45.757Z,92.22
2019-03-16T07:09:45.549Z,92.25
2019-03-16T07:14:45.644Z,92.39
2019-03-16T07:19:44.796Z,92.31
2019-03-16T07:24:43.897Z,92.24
2019-03-16T07:29:43.634Z,92.37
2019-03-16T07:34:43.817Z,92.36
2019-03-16T07:39:43.029Z,92.61
2019-03-16T07:44:42.302Z,92.93
2019-03-16T07:49:42.589Z,92.63
2019-03-16T07:54:41.693Z,92.39
2019-03-16T07:59:41.377Z,92.51
2019-03-16T08:04:43.423Z,92.56
2019-03-16T08:09:39.685Z,92.18
2019-03-16T08:14:39.740Z,91.87
2019-03-16T08:19:39.615Z,91.43
2019-03-16T08:24:40.865Z,91.43
2019-03-16T08:29:41.036Z,90.53
2019-03-16T08:34:40.849Z,90.35
2019-03-16T08:39:42.787Z,89.63
2019-03-16T08:44:40.551Z,89.20
2019-03-16T08:49:40.645Z,89.32
2019-03-16T08:54:40.620Z,89.21
2019-03-16T08:59:39.747Z,88.92
2019-03-16T09:04:39.033Z,88.92
2019-03-16T09:09:38.749Z,89.12
2019-03-16T09:14:37.944Z,89.07
2019-03-16T09:19:36.736Z,88.63
2019-03-16T09:24:36.698Z,87.97
2019-03-16T09:29:36.592Z,87.63
2019-03-16T09:34:36.822Z,86.47
2019-03-16T09:39:35.649Z,86.02
2019-03-16T09:44:35.632Z,85.34
2019-03-16T09:49:35.645Z,86.01
2019-03-16T09:54:35.638Z,85.45
2019-03-16T09:59:34.617Z,85.91
2019-03-16T10:04:34.608Z,86.32
2019-03-16T10:09:34.598Z,86.51
2019-03-16T10:14:33.653Z,86.70
2019-03-16T10:19:32.643Z,85.41
2019-03-16T10:24:32.792Z,84.87
2019-03-16T10:29:32.627Z,83.72
2019-03-16T10:34:32.684Z,82.76
2019-03-16T10:39:32.705Z,81.62
2019-03-16T10:44:32.790Z,81.37
2019-03-16T10:49:31.987Z,81.22
2019-03-16T10:54:31.680Z,80.26
2019-03-16T10:59:32.687Z,80.12
2019-03-16T11:04:32.674Z,79.93
2019-03-16T11:09:31.719Z,79.92
2019-03-16T11:14:30.640Z,79.86
2019-03-16T11:19:30.645Z,79.70
2019-03-16T11:24:30.615Z,79.70
2019-03-16T11:29:30.630Z,79.90
2019-03-16T11:34:30.682Z,79.44
2019-03-16T11:39:32.048Z,78.64
2019-03-16T11:44:30.676Z,78.60
2019-03-16T11:49:29.915Z,78.56
2019-03-16T11:54:28.704Z,77.71
2019-03-16T11:59:29.638Z,77.00
2019-03-16T12:04:30.896Z,76.70
2019-03-16T12:09:30.710Z,76.27
2019-03-16T12:14:29.612Z,76.93
2019-03-16T12:19:28.571Z,77.01
2019-03-16T12:24:28.073Z,76.85
2019-03-16T12:29:33.867Z,76.37
2019-03-16T12:34:28.642Z,76.44
2019-03-16T12:39:29.286Z,75.43
2019-03-16T12:44:29.184Z,76.26
2019-03-16T12:49:28.636Z,76.20
2019-03-16T12:54:29.749Z,76.34
2019-03-16T12:59:28.629Z,76.73
2019-03-16T13:04:28.644Z,77.13
2019-03-16T13:09:27.633Z,76.92
2019-03-16T13:14:27.937Z,77.29
2019-03-16T13:19:27.642Z,77.14
2019-03-16T13:24:27.685Z,76.53
2019-03-16T13:29:27.745Z,76.23
2019-03-16T13:34:26.740Z,76.78
2019-03-16T13:39:26.701Z,75.99
2019-03-16T13:44:26.685Z,75.21
2019-03-16T13:49:25.650Z,75.12
2019-03-16T13:54:25.809Z,74.59
2019-03-16T13:59:25.962Z,74.89
2019-03-16T14:04:24.921Z,74.75
2019-03-16T14:09:26.219Z,74.47
2019-03-16T14:14:25.818Z,74.40
2019-03-16T14:19:25.938Z,74.49
2019-03-16T14:24:26.021Z,74.67
2019-03-16T14:29:24.880Z,74.77
2019-03-16T14:34:24.926Z,74.90
2019-03-16T14:39:24.873Z,73.76
2019-03-16T14:44:24.662Z,73.46
2019-03-16T14:49:25.742Z,73.70
2019-03-16T14:54:25.643Z,71.98
2019-03-16T14:59:24.764Z,72.27
2019-03-16T15:04:23.698Z,72.58
2019-03-16T15:09:23.061Z,72.94
2019-03-16T15:14:23.682Z,72.62
2019-03-16T15:19:23.651Z,72.50
2019-03-16T15:24:25.195Z,71.92
2019-03-16T15:29:24.705Z,72.64
2019-03-16T15:34:24.164Z,72.65
2019-03-16T15:39:23.684Z,72.66
2019-03-16T15:44:23.912Z,72.20
2019-03-16T15:49:22.867Z,71.22
2019-03-16T15:54:22.665Z,71.04
2019-03-16T15:59:22.238Z,70.64
2019-03-16T16:04:22.172Z,69.76
2019-03-16T16:09:21.670Z,70.01
2019-03-16T16:14:20.675Z,69.76
2019-03-16T16:19:21.945Z,70.30
2019-03-16T16:24:20.065Z,70.35
2019-03-16T16:29:19.271Z,70.77
2019-03-16T16:34:18.705Z,70.55
2019-03-16T16:39:17.737Z,70.87
2019-03-16T16:44:16.682Z,70.99
2019-03-16T16:49:15.666Z,71.79
2019-03-16T16:54:15.048Z,71.65
2019-03-16T16:59:14.683Z,72.01
2019-03-16T17:04:15.784Z,72.27
2019-03-16T17:09:14.751Z,71.44
2019-03-16T17:14:15.711Z,71.78
2019-03-16T17:19:15.692Z,71.82
2019-03-16T17:24:15.076Z,71.96
2019-03-16T17:29:14.689Z,71.13
2019-03-16T17:34:13.843Z,70.66
2019-03-16T17:39:13.702Z,70.34
2019-03-16T17:44:12.662Z,69.62
2019-03-16T17:49:11.748Z,70.41
2019-03-16T17:54:10.672Z,69.26
2019-03-16T17:59:10.761Z,69.87
2019-03-16T18:04:10.662Z,70.36
2019-03-16T18:09:09.873Z,70.05
2019-03-16T18:14:09.653Z,70.40
2019-03-16T18:19:09.685Z,70.10
2019-03-16T18:24:08.773Z,70.52
2019-03-16T18:29:08.670Z,70.51
2019-03-16T18:34:08.744Z,70.23
2019-03-16T18:39:07.970Z,70.60
2019-03-16T18:44:07.732Z,70.08
2019-03-16T18:49:06.793Z,70.40
2019-03-16T18:54:06.054Z,69.97
2019-03-16T18:59:09.044Z,69.91
2019-03-16T19:04:04.774Z,69.93
2019-03-16T19:09:04.865Z,69.53
2019-03-16T19:14:03.902Z,69.58
2019-03-16T19:19:03.763Z,69.87
2019-03-16T19:24:04.695Z,69.87
2019-03-16T19:29:03.703Z,69.96
2019-03-16T19:34:02.734Z,69.99
2019-03-16T19:39:02.716Z,69.55
2019-03-16T19:44:02.807Z,69.70
2019-03-16T19:49:02.857Z,69.14
2019-03-16T19:54:01.822Z,70.17
2019-03-16T19:59:01.113Z,70.34
2019-03-16T20:03:59.847Z,69.82
2019-03-16T20:08:59.702Z,70.10
2019-03-16T20:13:59.686Z,70.24
2019-03-16T20:18:58.833Z,70.70
2019-03-16T20:23:58.724Z,70.60
2019-03-16T20:28:57.766Z,70.39
2019-03-16T20:33:57.748Z,70.92
2019-03-16T20:38:56.714Z,70.62
2019-03-16T20:43:56.776Z,70.80
2019-03-16T20:48:56.119Z,70.25
2019-03-16T20:53:56.735Z,70.65
2019-03-16T20:58:57.697Z,70.37
2019-03-16T21:03:57.749Z,70.26
2019-03-16T21:09:02.969Z,70.56
2019-03-16T21:13:58.987Z,70.16
2019-03-16T21:18:59.058Z,70.56
2019-03-16T21:23:59.674Z,70.21
2019-03-16T21:28:59.199Z,70.50
2019-03-16T21:33:58.727Z,70.95
2019-03-16T21:38:57.931Z,71.06
2019-03-16T21:43:57.681Z,71.00
2019-03-16T21:48:56.942Z,70.98
2019-03-16T21:53:57.907Z,70.96
2019-03-16T21:58:56.985Z,71.22
2019-03-16T22:03:55.767Z,70.97
2019-03-16T22:08:56.348Z,71.02
2019-03-16T22:13:56.581Z,70.82
2019-03-16T22:18:55.318Z,71.26
2019-03-16T22:23:54.599Z,71.20
2019-03-16T22:28:53.630Z,71.44
2019-03-16T22:33:54.618Z,71.50
2019-03-16T22:38:52.338Z,71.54
2019-03-16T22:43:52.618Z,72.12
2019-03-16T22:48:52.365Z,72.14
2019-03-16T22:53:52.372Z,71.96
2019-03-16T22:58:52.360Z,71.87
2019-03-16T23:03:51.349Z,71.62
2019-03-16T23:08:51.335Z,71.85
2019-03-16T23:13:51.347Z,71.86
2019-03-16T23:18:50.609Z,71.80
2019-03-16T23:23:50.343Z,71.23
2019-03-16T23:28:49.423Z,71.36
2019-03-16T23:33:49.352Z,71.30
2019-03-16T23:38:48.595Z,71.27
2019-03-16T23:43:49.609Z,71.18
2019-03-16T23:48:49.427Z,71.54
2019-03-16T23:53:50.391Z,70.97
2019-03-16T23:58:50.496Z,71.15
